Eagle, Michigan
Current Conditions -  °F | °C
As of 7:53 PM on Friday 28 Nov 2014 (Local Time) from KLAN Reporting Station
Overcast Overcast  
Wind Chill: 16°   Ceiling: 7000
Heat Index: 26°   Visibility: 8mi
Dew Point: 19°   Wind: 10mph
Humidity: 75%   Direction: 160°SSE
Pressure: 30.09"   Gusts: NA
Location:  42.81°N, 84.79°W
Report Text: KLAN 290053Z 16009KT 8SM OVC070 M03/M07 A3009 RMK AO2 SLP203 T10331072
Loading
Personal Weather Stations






























Interactive Weather Map New forecast layout! Learn more

10-Day Weather Forecast

Advertisements
Track Severe Weather on mobile